createdAt,value
2017-11-07T00:01:58.181Z,0.40
2017-11-07T00:04:26.310Z,0.40
2017-11-07T00:06:54.459Z,0.40
2017-11-07T00:09:22.586Z,0.40
2017-11-07T00:11:50.733Z,0.40
2017-11-07T00:14:18.875Z,0.40
2017-11-07T00:16:47.023Z,0.40
2017-11-07T00:19:15.146Z,0.40
2017-11-07T00:21:43.303Z,0.40
2017-11-07T00:24:11.417Z,0.30
2017-11-07T00:26:39.569Z,0.30
2017-11-07T00:29:07.693Z,0.30
2017-11-07T00:31:35.834Z,0.30
2017-11-07T00:34:03.962Z,0.30
2017-11-07T00:36:32.125Z,0.30
2017-11-07T00:39:00.260Z,0.30
2017-11-07T00:41:28.415Z,0.20
2017-11-07T00:43:56.540Z,0.20
2017-11-07T00:46:24.696Z,0.20
2017-11-07T00:48:52.811Z,0.20
2017-11-07T00:51:20.958Z,0.20
2017-11-07T00:53:49.077Z,0.20
2017-11-07T00:56:17.230Z,0.20
2017-11-07T00:58:45.358Z,0.10
2017-11-07T01:01:13.507Z,0.20
2017-11-07T01:03:41.631Z,0.10
2017-11-07T01:06:09.795Z,0.10
2017-11-07T01:08:37.917Z,0.10
2017-11-07T01:11:06.052Z,0.10
2017-11-07T01:13:34.206Z,0.10
2017-11-07T01:16:02.326Z,0.10
2017-11-07T01:18:30.470Z,0.00
2017-11-07T01:20:58.597Z,0.00
2017-11-07T01:23:26.748Z,0.00
2017-11-07T01:25:54.864Z,0.00
2017-11-07T01:28:23.005Z,0.00
2017-11-07T01:30:51.120Z,0.00
2017-11-07T01:33:19.267Z,0.00
2017-11-07T01:35:47.391Z,0.00
2017-11-07T01:38:15.541Z,0.00
2017-11-07T01:40:43.670Z,0.00
2017-11-07T01:43:11.822Z,0.00
2017-11-07T01:45:39.946Z,0.00
2017-11-07T01:48:08.093Z,0.00
2017-11-07T01:50:36.210Z,0.00
2017-11-07T01:53:04.367Z,0.00
2017-11-07T01:55:33.302Z,-0.10
2017-11-07T01:58:01.459Z,-0.10
2017-11-07T02:00:29.583Z,0.00
2017-11-07T02:02:57.743Z,-0.10
2017-11-07T02:05:25.870Z,-0.10
2017-11-07T02:07:54.028Z,-0.10
2017-11-07T02:10:22.923Z,-0.10
2017-11-07T02:12:51.077Z,-0.10
2017-11-07T02:15:19.206Z,-0.10
2017-11-07T02:17:47.361Z,-0.10
2017-11-07T02:20:15.488Z,-0.10
2017-11-07T02:22:43.648Z,-0.10
2017-11-07T02:25:11.779Z,-0.10
2017-11-07T02:27:39.927Z,-0.10
2017-11-07T02:30:08.082Z,-0.10
2017-11-07T02:32:36.214Z,-0.20
2017-11-07T02:35:04.366Z,-0.20
2017-11-07T02:37:32.521Z,-0.20
2017-11-07T02:40:00.673Z,-0.20
2017-11-07T02:42:28.814Z,-0.20
2017-11-07T02:44:56.966Z,-0.30
2017-11-07T02:47:25.100Z,-0.30
2017-11-07T02:49:53.255Z,-0.30
2017-11-07T02:52:21.389Z,-0.30
2017-11-07T02:54:49.546Z,-0.30
2017-11-07T02:57:18.453Z,-0.30
2017-11-07T02:59:46.613Z,-0.40
2017-11-07T03:02:14.737Z,-0.30
2017-11-07T03:04:42.886Z,-0.30
2017-11-07T03:07:11.016Z,-0.40
2017-11-07T03:09:39.173Z,-0.40
2017-11-07T03:12:07.298Z,-0.40
2017-11-07T03:14:35.455Z,-0.40
2017-11-07T03:17:03.577Z,-0.40
2017-11-07T03:19:31.737Z,-0.40
2017-11-07T03:21:59.863Z,-0.40
2017-11-07T03:24:28.782Z,-0.40
2017-11-07T03:26:57.677Z,-0.50
2017-11-07T03:29:25.829Z,-0.50
2017-11-07T03:31:53.956Z,-0.50
2017-11-07T03:34:22.110Z,-0.50
2017-11-07T03:36:50.233Z,-0.50
2017-11-07T03:39:18.385Z,-0.50
2017-11-07T03:41:46.510Z,-0.50
2017-11-07T03:44:14.667Z,-0.50
2017-11-07T03:46:42.827Z,-0.50
2017-11-07T03:49:10.945Z,-0.50
2017-11-07T03:51:39.103Z,-0.50
2017-11-07T03:54:07.238Z,-0.40
2017-11-07T03:56:35.385Z,-0.40
2017-11-07T03:59:03.510Z,-0.30
2017-11-07T04:01:31.669Z,-0.40
2017-11-07T04:03:59.793Z,-0.30
2017-11-07T04:06:27.947Z,-0.30
2017-11-07T04:08:56.079Z,-0.30
2017-11-07T04:11:24.238Z,-0.30
2017-11-07T04:13:52.374Z,-0.40
2017-11-07T04:16:20.531Z,-0.40
2017-11-07T04:18:48.649Z,-0.40
2017-11-07T04:21:16.806Z,-0.40
2017-11-07T04:23:44.934Z,-0.40
2017-11-07T04:26:13.086Z,-0.40
2017-11-07T04:28:41.218Z,-0.50
2017-11-07T04:31:09.374Z,-0.50
2017-11-07T04:33:37.497Z,-0.50
2017-11-07T04:36:05.644Z,-0.50
2017-11-07T04:38:33.771Z,-0.50
2017-11-07T04:41:02.694Z,-0.60
2017-11-07T04:43:30.823Z,-0.60
2017-11-07T04:45:59.739Z,-0.50
2017-11-07T04:48:27.856Z,-0.60
2017-11-07T04:50:56.001Z,-0.60
2017-11-07T04:53:24.125Z,-0.60
2017-11-07T04:55:52.273Z,-0.60
2017-11-07T04:58:20.401Z,-0.60
2017-11-07T05:00:48.561Z,-0.60
2017-11-07T05:03:17.441Z,-0.70
2017-11-07T05:05:45.561Z,-0.70
2017-11-07T05:08:13.717Z,-0.70
2017-11-07T05:10:41.848Z,-0.70
2017-11-07T05:13:10.006Z,-0.70
2017-11-07T05:15:38.131Z,-0.70
2017-11-07T05:18:06.294Z,-0.70
2017-11-07T05:20:35.185Z,-0.80
2017-11-07T05:23:03.335Z,-0.80
2017-11-07T05:25:31.461Z,-0.80
2017-11-07T05:27:59.615Z,-0.80
2017-11-07T05:30:27.738Z,-0.80
2017-11-07T05:32:55.880Z,-0.80
2017-11-07T05:35:24.010Z,-0.80
2017-11-07T05:37:52.938Z,-0.80
2017-11-07T05:40:21.074Z,-0.80
2017-11-07T05:42:49.985Z,-0.80
2017-11-07T05:45:18.109Z,-0.80
2017-11-07T05:47:46.266Z,-0.80
2017-11-07T05:50:14.403Z,-0.80
2017-11-07T05:52:42.553Z,-0.80
2017-11-07T05:55:10.683Z,-0.80
2017-11-07T05:57:38.842Z,-0.80
2017-11-07T06:00:06.975Z,-0.80
2017-11-07T06:02:35.125Z,-0.80
2017-11-07T06:05:03.249Z,-0.80
2017-11-07T06:07:31.491Z,-0.90
2017-11-07T06:09:59.619Z,-0.90
2017-11-07T06:12:27.779Z,-0.90
2017-11-07T06:14:55.906Z,-0.90
2017-11-07T06:17:24.070Z,-0.80
2017-11-07T06:19:52.202Z,-0.80
2017-11-07T06:22:20.357Z,-0.80
2017-11-07T06:24:51.069Z,-0.80
2017-11-07T06:27:19.257Z,-0.80
2017-11-07T06:29:47.391Z,-0.80
2017-11-07T06:32:15.527Z,-0.80
2017-11-07T06:34:43.690Z,-0.80
2017-11-07T06:37:11.827Z,-0.70
2017-11-07T06:39:40.015Z,-0.70
2017-11-07T06:42:08.909Z,-0.70
2017-11-07T06:44:37.068Z,-0.70
2017-11-07T06:47:05.210Z,-0.70
2017-11-07T06:49:33.364Z,-0.60
2017-11-07T06:52:01.498Z,-0.60
2017-11-07T06:54:29.667Z,-0.50
2017-11-07T06:56:57.806Z,-0.50
2017-11-07T06:59:25.975Z,-0.40
2017-11-07T07:01:54.114Z,-0.30
2017-11-07T07:04:22.281Z,-0.30
2017-11-07T07:06:50.423Z,-0.20
2017-11-07T07:09:18.578Z,-0.20
2017-11-07T07:11:46.715Z,-0.10
2017-11-07T07:14:14.878Z,-0.20
2017-11-07T07:16:43.019Z,-0.10
2017-11-07T07:19:11.191Z,-0.10
2017-11-07T07:21:39.338Z,-0.10
2017-11-07T07:24:07.496Z,0.00
2017-11-07T07:26:35.705Z,0.00
2017-11-07T07:29:03.854Z,0.00
2017-11-07T07:31:31.989Z,0.10
2017-11-07T07:34:00.925Z,0.20
2017-11-07T07:36:29.045Z,0.10
2017-11-07T07:38:58.482Z,0.30
2017-11-07T07:41:26.665Z,0.20
2017-11-07T07:43:55.023Z,0.30
2017-11-07T07:46:23.177Z,0.40
2017-11-07T07:48:52.073Z,0.60
2017-11-07T07:51:20.236Z,0.60
2017-11-07T07:53:49.138Z,0.90
2017-11-07T07:56:17.303Z,0.80
2017-11-07T07:58:46.192Z,1.10
2017-11-07T08:01:14.341Z,1.10
2017-11-07T08:03:42.492Z,1.20
2017-11-07T08:06:10.650Z,1.30
2017-11-07T08:08:38.787Z,1.40
2017-11-07T08:11:06.942Z,1.40
2017-11-07T08:13:35.066Z,1.50
2017-11-07T08:16:03.227Z,1.70
2017-11-07T08:18:31.362Z,1.70
2017-11-07T08:20:59.522Z,1.80
2017-11-07T08:23:27.648Z,1.90
2017-11-07T08:25:55.792Z,2.10
2017-11-07T08:28:23.919Z,2.20
2017-11-07T08:30:52.065Z,2.30
2017-11-07T08:33:20.193Z,2.50
2017-11-07T08:35:48.365Z,2.60
2017-11-07T08:38:16.486Z,2.80
2017-11-07T08:40:44.644Z,2.90
2017-11-07T08:43:12.769Z,3.10
2017-11-07T08:45:41.630Z,3.30
2017-11-07T08:48:09.747Z,3.50
2017-11-07T08:50:38.171Z,3.70
2017-11-07T08:53:06.296Z,4.00
2017-11-07T08:55:34.455Z,4.30
2017-11-07T08:58:02.579Z,4.70
2017-11-07T09:00:30.710Z,4.90
2017-11-07T09:02:58.861Z,5.30
2017-11-07T09:05:26.977Z,5.60
2017-11-07T09:07:55.126Z,5.80
2017-11-07T09:10:23.247Z,5.80
2017-11-07T09:12:51.389Z,5.80
2017-11-07T09:15:19.509Z,5.80
2017-11-07T09:17:47.654Z,5.90
2017-11-07T09:20:16.542Z,6.20
2017-11-07T09:22:44.686Z,6.10
2017-11-07T09:25:12.811Z,6.30
2017-11-07T09:27:40.967Z,6.40
2017-11-07T09:30:09.087Z,6.50
2017-11-07T09:32:37.230Z,6.60
2017-11-07T09:35:05.350Z,6.70
2017-11-07T09:37:33.494Z,6.80
2017-11-07T09:40:01.614Z,6.90
2017-11-07T09:42:29.762Z,6.90
2017-11-07T09:44:57.892Z,7.00
2017-11-07T09:47:26.043Z,7.00
2017-11-07T09:49:54.167Z,7.10
2017-11-07T09:52:22.313Z,7.20
2017-11-07T09:54:51.190Z,7.40
2017-11-07T09:57:20.101Z,7.40
2017-11-07T09:59:48.221Z,7.40
2017-11-07T10:02:16.374Z,7.50
2017-11-07T10:04:44.505Z,7.60
2017-11-07T10:07:12.673Z,7.70
2017-11-07T10:09:40.802Z,7.80
2017-11-07T10:12:08.951Z,7.90
2017-11-07T10:14:37.066Z,8.00
2017-11-07T10:17:05.240Z,8.00
2017-11-07T10:19:33.380Z,8.10
2017-11-07T10:22:01.502Z,8.20
2017-11-07T10:24:29.661Z,8.30
2017-11-07T10:26:57.820Z,8.40
2017-11-07T10:29:25.969Z,8.60
2017-11-07T10:31:54.081Z,8.60
2017-11-07T10:34:24.668Z,8.70
2017-11-07T10:36:52.790Z,8.80
2017-11-07T10:39:20.949Z,8.90
2017-11-07T10:41:49.065Z,9.00
2017-11-07T10:44:17.211Z,9.20
2017-11-07T10:46:45.335Z,9.20
2017-11-07T10:49:13.484Z,9.30
2017-11-07T10:51:41.596Z,9.40
2017-11-07T10:54:09.750Z,9.40
2017-11-07T10:56:37.870Z,9.40
2017-11-07T10:59:06.024Z,9.40
2017-11-07T11:01:34.149Z,9.40
2017-11-07T11:04:02.311Z,9.50
2017-11-07T11:06:30.431Z,9.60
2017-11-07T11:08:58.584Z,9.60
2017-11-07T11:11:26.701Z,9.60
2017-11-07T11:13:54.850Z,9.60
2017-11-07T11:16:22.969Z,9.60
2017-11-07T11:18:51.119Z,9.60
2017-11-07T11:21:19.238Z,9.80
2017-11-07T11:23:47.389Z,9.90
2017-11-07T11:26:15.522Z,10.20
2017-11-07T11:28:43.678Z,10.30
2017-11-07T11:31:11.800Z,10.30
2017-11-07T11:33:39.978Z,10.50
2017-11-07T11:36:08.112Z,10.60
2017-11-07T11:38:36.241Z,10.50
2017-11-07T11:41:04.402Z,10.50
2017-11-07T11:43:32.526Z,10.50
2017-11-07T11:46:00.677Z,10.50
2017-11-07T11:48:28.805Z,10.40
2017-11-07T11:50:56.966Z,10.30
2017-11-07T11:53:25.123Z,10.20
2017-11-07T11:55:53.279Z,10.10
2017-11-07T11:58:21.413Z,10.00
2017-11-07T12:00:49.565Z,9.90
2017-11-07T12:03:17.694Z,9.90
2017-11-07T12:05:45.842Z,9.80
2017-11-07T12:08:13.959Z,9.80
2017-11-07T12:10:42.132Z,9.80
2017-11-07T12:13:10.261Z,9.80
2017-11-07T12:15:39.182Z,9.70
2017-11-07T12:18:07.307Z,9.70
2017-11-07T12:20:36.261Z,9.60
2017-11-07T12:23:04.382Z,9.60
2017-11-07T12:25:32.503Z,9.60
2017-11-07T12:28:00.653Z,9.60
2017-11-07T12:30:28.773Z,9.50
2017-11-07T12:32:56.937Z,9.50
2017-11-07T12:35:25.053Z,9.60
2017-11-07T12:37:53.979Z,9.50
2017-11-07T12:40:22.105Z,9.50
2017-11-07T12:42:50.261Z,9.50
2017-11-07T12:45:18.394Z,9.40
2017-11-07T12:47:46.552Z,9.40
2017-11-07T12:53:20.615Z,9.20
2017-11-07T12:55:48.742Z,9.10
2017-11-07T12:58:17.739Z,9.10
2017-11-07T13:00:45.858Z,9.10
2017-11-07T13:03:14.017Z,9.20
2017-11-07T13:05:42.146Z,9.30
2017-11-07T13:08:10.303Z,9.40
2017-11-07T13:10:38.419Z,9.60
2017-11-07T13:13:06.691Z,9.70
2017-11-07T13:15:35.573Z,10.00
2017-11-07T13:18:03.733Z,9.90
2017-11-07T13:20:31.869Z,10.00
2017-11-07T13:23:00.027Z,10.00
2017-11-07T13:25:28.145Z,10.00
2017-11-07T13:27:56.314Z,10.00
2017-11-07T13:30:24.447Z,9.90
2017-11-07T13:32:52.800Z,9.90
2017-11-07T13:35:21.718Z,9.70
2017-11-07T13:37:49.866Z,9.60
2017-11-07T13:40:18.774Z,9.70
2017-11-07T13:42:46.928Z,9.70
2017-11-07T13:45:15.922Z,9.70
2017-11-07T13:47:44.833Z,9.60
2017-11-07T13:50:12.962Z,9.60
2017-11-07T13:52:41.108Z,9.60
2017-11-07T13:55:09.221Z,9.50
2017-11-07T13:57:37.370Z,9.40
2017-11-07T14:00:05.495Z,9.30
2017-11-07T14:02:33.900Z,9.20
2017-11-07T14:05:02.051Z,9.10
2017-11-07T14:07:30.408Z,9.00
2017-11-07T14:09:59.327Z,8.90
2017-11-07T14:12:27.516Z,8.90
2017-11-07T14:14:55.633Z,8.90
2017-11-07T14:17:23.791Z,8.80
2017-11-07T14:19:51.983Z,8.80
2017-11-07T14:22:20.905Z,8.70
2017-11-07T14:24:49.038Z,8.70
2017-11-07T14:27:17.201Z,8.70
2017-11-07T14:29:46.759Z,8.70
2017-11-07T14:32:14.912Z,8.60
2017-11-07T14:34:43.108Z,8.60
2017-11-07T14:37:11.245Z,8.50
2017-11-07T14:39:40.170Z,8.40
2017-11-07T14:42:08.299Z,8.40
2017-11-07T14:44:36.449Z,8.30
2017-11-07T14:47:04.575Z,8.30
2017-11-07T14:49:33.515Z,8.10
2017-11-07T14:52:01.673Z,8.10
2017-11-07T14:54:30.060Z,8.00
2017-11-07T14:56:58.292Z,8.00
2017-11-07T14:59:27.202Z,7.80
2017-11-07T15:01:55.322Z,7.80
2017-11-07T15:04:23.499Z,7.70
2017-11-07T15:06:51.632Z,7.60
2017-11-07T15:09:19.741Z,7.60
2017-11-07T15:11:47.900Z,7.50
2017-11-07T15:14:16.058Z,7.40
2017-11-07T15:16:44.176Z,7.30
2017-11-07T15:19:12.326Z,7.20
2017-11-07T15:21:40.462Z,7.20
2017-11-07T15:24:08.638Z,7.10
2017-11-07T15:26:36.994Z,7.00
2017-11-07T15:29:05.914Z,6.90
2017-11-07T15:31:34.059Z,6.90
2017-11-07T15:34:02.222Z,6.80
2017-11-07T15:36:30.353Z,6.70
2017-11-07T15:38:58.709Z,6.70
2017-11-07T15:41:26.846Z,6.60
2017-11-07T15:43:54.985Z,6.50
2017-11-07T15:46:23.186Z,6.50
2017-11-07T15:48:52.119Z,6.40
2017-11-07T15:51:20.237Z,6.30
2017-11-07T15:53:48.388Z,6.30
2017-11-07T15:56:16.539Z,6.20
2017-11-07T15:58:44.693Z,6.20
2017-11-07T16:01:12.831Z,6.10
2017-11-07T16:03:40.997Z,6.00
2017-11-07T16:06:09.121Z,6.00
2017-11-07T16:08:37.249Z,5.90
2017-11-07T16:11:05.501Z,5.80
2017-11-07T16:13:33.701Z,5.70
2017-11-07T16:16:01.857Z,5.60
2017-11-07T16:18:29.993Z,5.50
2017-11-07T16:20:58.156Z,5.40
2017-11-07T16:23:26.300Z,5.20
2017-11-07T16:25:54.515Z,5.10
2017-11-07T16:28:22.679Z,5.00
2017-11-07T16:30:50.830Z,4.90
2017-11-07T16:33:18.949Z,4.80
2017-11-07T16:35:47.117Z,4.70
2017-11-07T16:38:15.289Z,4.60
2017-11-07T16:40:43.463Z,4.60
2017-11-07T16:43:11.604Z,4.50
2017-11-07T16:45:39.767Z,4.50
2017-11-07T16:48:07.930Z,4.50
2017-11-07T16:50:36.128Z,4.40
2017-11-07T16:53:04.266Z,4.40
2017-11-07T16:55:32.418Z,4.40
2017-11-07T16:58:00.564Z,4.40
2017-11-07T17:00:28.725Z,4.40
2017-11-07T17:02:56.855Z,4.30
2017-11-07T17:05:25.032Z,4.30
2017-11-07T17:07:53.155Z,4.20
2017-11-07T17:10:21.348Z,4.10
2017-11-07T17:12:49.471Z,4.00
2017-11-07T17:15:17.637Z,3.90
2017-11-07T17:17:45.768Z,3.90
2017-11-07T17:20:13.914Z,3.80
2017-11-07T17:22:42.045Z,3.70
2017-11-07T17:25:10.980Z,3.60
2017-11-07T17:27:39.165Z,3.50
2017-11-07T17:30:07.646Z,3.50
2017-11-07T17:32:35.926Z,3.40
2017-11-07T17:35:04.612Z,3.40
2017-11-07T17:37:32.800Z,3.30
2017-11-07T17:40:01.010Z,3.30
2017-11-07T17:42:29.222Z,3.20
2017-11-07T17:44:58.328Z,3.00
2017-11-07T17:47:26.903Z,3.00
2017-11-07T17:49:56.205Z,2.90
2017-11-07T17:52:24.692Z,2.90
2017-11-07T17:54:53.265Z,2.90
2017-11-07T17:57:21.816Z,2.90
2017-11-07T17:59:50.592Z,2.80
2017-11-07T18:02:19.727Z,2.80
2017-11-07T18:04:48.694Z,2.70
2017-11-07T18:07:18.438Z,2.70
2017-11-07T18:09:48.199Z,2.70
2017-11-07T18:12:17.832Z,2.60
2017-11-07T18:14:46.846Z,2.60
2017-11-07T18:17:16.203Z,2.60
2017-11-07T18:19:44.871Z,2.60
2017-11-07T18:22:15.304Z,2.50
2017-11-07T18:24:44.901Z,2.60
2017-11-07T18:27:13.143Z,2.60
2017-11-07T18:29:41.360Z,2.60
2017-11-07T18:32:09.783Z,2.60
2017-11-07T18:34:38.221Z,2.60
2017-11-07T18:37:07.132Z,2.60
2017-11-07T18:39:35.840Z,2.60
2017-11-07T18:42:04.214Z,2.60
2017-11-07T18:44:32.548Z,2.60
2017-11-07T18:47:00.744Z,2.60
2017-11-07T18:49:30.311Z,2.50
2017-11-07T18:52:00.989Z,2.50
2017-11-07T18:54:29.938Z,2.50
2017-11-07T18:57:00.970Z,2.50
2017-11-07T18:59:29.767Z,2.50
2017-11-07T19:01:58.896Z,2.50
2017-11-07T19:04:28.071Z,2.50
2017-11-07T19:06:57.517Z,2.50
2017-11-07T19:09:26.215Z,2.50
2017-11-07T19:11:55.801Z,2.60
2017-11-07T19:14:31.372Z,2.70
2017-11-07T19:16:59.710Z,2.70
2017-11-07T19:19:27.879Z,2.80
2017-11-07T19:21:56.260Z,2.90
2017-11-07T19:24:24.546Z,3.00
2017-11-07T19:26:54.311Z,3.00
2017-11-07T19:29:23.237Z,3.10
2017-11-07T19:31:51.458Z,3.10
2017-11-07T19:34:19.716Z,3.20
2017-11-07T19:36:48.636Z,3.20
2017-11-07T19:39:17.434Z,3.30
2017-11-07T19:41:46.495Z,3.20
2017-11-07T19:44:14.679Z,3.20
2017-11-07T19:46:43.032Z,3.20
2017-11-07T19:49:11.818Z,3.20
2017-11-07T19:51:40.825Z,3.10
2017-11-07T19:54:09.030Z,3.10
2017-11-07T19:56:37.217Z,3.10
2017-11-07T19:59:05.595Z,3.10
2017-11-07T20:01:33.800Z,3.10
2017-11-07T20:04:02.931Z,3.20
2017-11-07T20:06:31.126Z,3.10
2017-11-07T20:09:03.302Z,3.20
2017-11-07T20:11:31.592Z,3.20
2017-11-07T20:13:59.844Z,3.30
2017-11-07T20:16:28.013Z,3.30
2017-11-07T20:18:56.960Z,3.50
2017-11-07T20:21:25.122Z,3.50
2017-11-07T20:23:53.347Z,3.60
2017-11-07T20:26:21.507Z,3.60
2017-11-07T20:28:49.911Z,3.70
2017-11-07T20:31:18.131Z,3.90
2017-11-07T20:33:46.456Z,3.90
2017-11-07T20:36:14.625Z,4.10
2017-11-07T20:38:42.961Z,4.20
2017-11-07T20:41:11.146Z,4.30
2017-11-07T20:43:39.315Z,4.40
2017-11-07T20:46:07.654Z,4.50
2017-11-07T20:48:36.670Z,4.60
2017-11-07T20:51:04.883Z,4.60
2017-11-07T20:53:33.111Z,4.70
2017-11-07T20:56:01.352Z,4.80
2017-11-07T20:58:30.009Z,4.80
2017-11-07T21:00:58.318Z,4.90
2017-11-07T21:03:26.551Z,4.90
2017-11-07T21:05:54.777Z,4.90
2017-11-07T21:08:23.711Z,5.00
2017-11-07T21:10:51.872Z,4.90
2017-11-07T21:13:20.138Z,5.00
2017-11-07T21:15:48.337Z,5.00
2017-11-07T21:18:16.492Z,5.10
2017-11-07T21:20:45.646Z,5.10
2017-11-07T21:23:13.788Z,5.20
2017-11-07T21:25:41.947Z,5.20
2017-11-07T21:28:10.256Z,5.30
2017-11-07T21:30:38.460Z,5.30
2017-11-07T21:33:07.453Z,5.40
2017-11-07T21:35:36.372Z,5.40
2017-11-07T21:38:04.660Z,5.40
2017-11-07T21:40:33.598Z,5.40
2017-11-07T21:43:01.830Z,5.50
2017-11-07T21:45:30.002Z,5.50
2017-11-07T21:47:58.197Z,5.50
2017-11-07T21:50:26.406Z,5.50
2017-11-07T21:52:55.342Z,5.60
2017-11-07T21:55:23.507Z,5.60
2017-11-07T21:57:51.783Z,5.60
2017-11-07T22:00:19.979Z,5.60
2017-11-07T22:02:48.160Z,5.60
2017-11-07T22:05:16.410Z,5.70
2017-11-07T22:07:44.600Z,5.70
2017-11-07T22:10:16.553Z,5.70
2017-11-07T22:12:44.815Z,5.70
2017-11-07T22:15:13.014Z,5.70
2017-11-07T22:17:41.174Z,5.80
2017-11-07T22:20:09.298Z,5.80
2017-11-07T22:22:43.143Z,5.80
2017-11-07T22:25:17.137Z,5.80
2017-11-07T22:27:45.286Z,5.80
2017-11-07T22:30:13.448Z,5.90
2017-11-07T22:32:41.597Z,5.90
2017-11-07T22:35:09.734Z,5.90
2017-11-07T22:37:37.877Z,5.90
2017-11-07T22:40:06.018Z,5.90
2017-11-07T22:42:34.148Z,5.90
2017-11-07T22:45:02.354Z,6.00
2017-11-07T22:47:30.497Z,6.00
2017-11-07T22:49:59.410Z,6.00
2017-11-07T22:52:27.533Z,6.00
2017-11-07T22:54:55.690Z,6.00
2017-11-07T22:57:23.844Z,6.10
2017-11-07T22:59:52.031Z,6.10
2017-11-07T23:02:20.160Z,6.10
2017-11-07T23:04:48.310Z,6.10
2017-11-07T23:07:16.438Z,6.10
2017-11-07T23:09:44.591Z,6.10
2017-11-07T23:12:12.717Z,6.10
2017-11-07T23:14:40.857Z,6.20
2017-11-07T23:17:08.981Z,6.20
2017-11-07T23:19:37.170Z,6.20
2017-11-07T23:22:05.302Z,6.20
2017-11-07T23:24:33.454Z,6.20
2017-11-07T23:27:01.584Z,6.20
2017-11-07T23:29:29.764Z,6.30
2017-11-07T23:31:57.917Z,6.20
2017-11-07T23:34:26.129Z,6.20
2017-11-07T23:36:54.257Z,6.30
2017-11-07T23:39:22.413Z,6.20
2017-11-07T23:41:50.547Z,6.30
2017-11-07T23:44:18.703Z,6.30
2017-11-07T23:46:46.830Z,6.30
2017-11-07T23:49:14.990Z,6.30
2017-11-07T23:51:43.170Z,6.30
2017-11-07T23:54:11.288Z,6.30
2017-11-07T23:56:39.450Z,6.30
2017-11-07T23:59:07.582Z,6.30
